sensor_id;sensor_type;location;lat;lon;timestamp;temperature;humidity
18950;DHT22;9608;49.288;8.130;2024-03-29T00:00:59;6.50;99.90
18950;DHT22;9608;49.288;8.130;2024-03-29T00:03:24;6.50;99.90
18950;DHT22;9608;49.288;8.130;2024-03-29T00:05:50;6.50;99.90
18950;DHT22;9608;49.288;8.130;2024-03-29T00:08:16;6.40;99.90
18950;DHT22;9608;49.288;8.130;2024-03-29T00:10:42;6.40;99.90
18950;DHT22;9608;49.288;8.130;2024-03-29T00:13:09;6.60;99.90
18950;DHT22;9608;49.288;8.130;2024-03-29T00:15:35;6.70;99.90
18950;DHT22;9608;49.288;8.130;2024-03-29T00:18:01;6.90;99.90
18950;DHT22;9608;49.288;8.130;2024-03-29T00:20:26;6.90;99.90
18950;DHT22;9608;49.288;8.130;2024-03-29T00:22:52;7.00;99.90
18950;DHT22;9608;49.288;8.130;2024-03-29T00:25:18;7.10;99.90
18950;DHT22;9608;49.288;8.130;2024-03-29T00:27:44;7.20;99.90
18950;DHT22;9608;49.288;8.130;2024-03-29T00:30:12;7.20;99.90
18950;DHT22;9608;49.288;8.130;2024-03-29T00:32:38;7.20;99.90
18950;DHT22;9608;49.288;8.130;2024-03-29T00:35:04;7.20;99.90
18950;DHT22;9608;49.288;8.130;2024-03-29T00:37:30;7.30;99.90
18950;DHT22;9608;49.288;8.130;2024-03-29T00:39:56;7.30;99.90
18950;DHT22;9608;49.288;8.130;2024-03-29T00:42:21;7.40;99.90
18950;DHT22;9608;49.288;8.130;2024-03-29T00:44:47;7.40;99.90
18950;DHT22;9608;49.288;8.130;2024-03-29T00:47:14;7.40;99.90
18950;DHT22;9608;49.288;8.130;2024-03-29T00:49:40;7.50;99.90
18950;DHT22;9608;49.288;8.130;2024-03-29T00:52:06;7.50;99.90
18950;DHT22;9608;49.288;8.130;2024-03-29T00:54:32;7.50;99.90
18950;DHT22;9608;49.288;8.130;2024-03-29T00:56:58;7.50;99.90
18950;DHT22;9608;49.288;8.130;2024-03-29T00:59:24;7.60;99.90
18950;DHT22;9608;49.288;8.130;2024-03-29T01:01:50;7.60;99.90
18950;DHT22;9608;49.288;8.130;2024-03-29T01:04:18;7.60;99.90
18950;DHT22;9608;49.288;8.130;2024-03-29T01:06:44;7.70;99.90
18950;DHT22;9608;49.288;8.130;2024-03-29T01:09:10;7.70;99.90
18950;DHT22;9608;49.288;8.130;2024-03-29T01:11:35;7.70;99.90
18950;DHT22;9608;49.288;8.130;2024-03-29T01:14:01;7.70;99.90
18950;DHT22;9608;49.288;8.130;2024-03-29T01:16:27;7.70;99.90
18950;DHT22;9608;49.288;8.130;2024-03-29T01:18:53;7.70;99.90
18950;DHT22;9608;49.288;8.130;2024-03-29T01:21:20;7.70;99.90
18950;DHT22;9608;49.288;8.130;2024-03-29T01:23:46;7.70;99.90
18950;DHT22;9608;49.288;8.130;2024-03-29T01:26:12;7.70;99.90
18950;DHT22;9608;49.288;8.130;2024-03-29T01:28:38;7.70;99.90
18950;DHT22;9608;49.288;8.130;2024-03-29T01:31:04;7.70;99.90
18950;DHT22;9608;49.288;8.130;2024-03-29T01:33:30;7.70;99.90
18950;DHT22;9608;49.288;8.130;2024-03-29T01:35:56;7.60;99.90
18950;DHT22;9608;49.288;8.130;2024-03-29T01:38:24;7.60;99.90
18950;DHT22;9608;49.288;8.130;2024-03-29T01:40:49;7.60;99.90
18950;DHT22;9608;49.288;8.130;2024-03-29T01:43:15;7.60;99.90
18950;DHT22;9608;49.288;8.130;2024-03-29T01:45:43;7.50;99.90
18950;DHT22;9608;49.288;8.130;2024-03-29T01:48:14;7.50;99.90
18950;DHT22;9608;49.288;8.130;2024-03-29T01:50:42;7.60;99.90
18950;DHT22;9608;49.288;8.130;2024-03-29T01:53:08;7.70;99.90
18950;DHT22;9608;49.288;8.130;2024-03-29T01:55:37;7.80;99.90
18950;DHT22;9608;49.288;8.130;2024-03-29T01:58:04;7.80;99.90
18950;DHT22;9608;49.288;8.130;2024-03-29T02:00:32;7.90;99.90
18950;DHT22;9608;49.288;8.130;2024-03-29T02:02:59;7.90;99.90
18950;DHT22;9608;49.288;8.130;2024-03-29T02:05:26;7.90;99.90
18950;DHT22;9608;49.288;8.130;2024-03-29T02:07:54;7.90;99.90
18950;DHT22;9608;49.288;8.130;2024-03-29T02:10:22;8.00;99.90
18950;DHT22;9608;49.288;8.130;2024-03-29T02:12:49;8.00;99.90
18950;DHT22;9608;49.288;8.130;2024-03-29T02:15:16;8.10;99.90
18950;DHT22;9608;49.288;8.130;2024-03-29T02:17:42;8.10;99.90
18950;DHT22;9608;49.288;8.130;2024-03-29T02:20:10;8.10;99.90
18950;DHT22;9608;49.288;8.130;2024-03-29T02:22:40;8.10;99.90
18950;DHT22;9608;49.288;8.130;2024-03-29T02:25:13;8.10;99.90
18950;DHT22;9608;49.288;8.130;2024-03-29T02:27:39;8.00;99.90
18950;DHT22;9608;49.288;8.130;2024-03-29T02:30:07;8.10;99.90
18950;DHT22;9608;49.288;8.130;2024-03-29T02:32:34;8.20;99.90
18950;DHT22;9608;49.288;8.130;2024-03-29T02:35:00;8.20;99.90
18950;DHT22;9608;49.288;8.130;2024-03-29T02:37:27;8.20;99.90
18950;DHT22;9608;49.288;8.130;2024-03-29T02:39:54;8.20;99.90
18950;DHT22;9608;49.288;8.130;2024-03-29T02:42:22;8.20;99.90
18950;DHT22;9608;49.288;8.130;2024-03-29T02:44:48;8.20;99.90
18950;DHT22;9608;49.288;8.130;2024-03-29T02:47:15;8.20;99.90
18950;DHT22;9608;49.288;8.130;2024-03-29T02:49:42;8.30;99.90
18950;DHT22;9608;49.288;8.130;2024-03-29T02:52:08;8.10;99.90
18950;DHT22;9608;49.288;8.130;2024-03-29T02:54:34;8.20;99.90
18950;DHT22;9608;49.288;8.130;2024-03-29T02:57:00;8.30;99.90
18950;DHT22;9608;49.288;8.130;2024-03-29T02:59:28;8.30;99.90
18950;DHT22;9608;49.288;8.130;2024-03-29T03:01:54;8.30;99.90
18950;DHT22;9608;49.288;8.130;2024-03-29T03:04:20;8.30;99.90
18950;DHT22;9608;49.288;8.130;2024-03-29T03:06:46;8.30;99.90
18950;DHT22;9608;49.288;8.130;2024-03-29T03:09:13;8.30;99.90
18950;DHT22;9608;49.288;8.130;2024-03-29T03:11:57;8.30;99.90
18950;DHT22;9608;49.288;8.130;2024-03-29T03:14:24;8.40;99.90
18950;DHT22;9608;49.288;8.130;2024-03-29T03:16:52;8.40;99.90
18950;DHT22;9608;49.288;8.130;2024-03-29T03:19:19;8.40;99.90
18950;DHT22;9608;49.288;8.130;2024-03-29T03:21:45;8.20;99.90
18950;DHT22;9608;49.288;8.130;2024-03-29T03:24:13;8.30;99.90
18950;DHT22;9608;49.288;8.130;2024-03-29T03:26:38;8.50;99.90
18950;DHT22;9608;49.288;8.130;2024-03-29T03:29:05;8.50;99.90
18950;DHT22;9608;49.288;8.130;2024-03-29T03:31:33;8.40;99.90
18950;DHT22;9608;49.288;8.130;2024-03-29T03:34:01;8.30;99.90
18950;DHT22;9608;49.288;8.130;2024-03-29T03:36:27;8.30;99.90
18950;DHT22;9608;49.288;8.130;2024-03-29T03:38:53;8.20;99.90
18950;DHT22;9608;49.288;8.130;2024-03-29T03:41:19;8.20;99.90
18950;DHT22;9608;49.288;8.130;2024-03-29T03:43:46;8.20;99.90
18950;DHT22;9608;49.288;8.130;2024-03-29T03:46:11;8.20;99.90
18950;DHT22;9608;49.288;8.130;2024-03-29T03:48:38;8.00;99.90
18950;DHT22;9608;49.288;8.130;2024-03-29T03:51:05;8.10;99.90
18950;DHT22;9608;49.288;8.130;2024-03-29T03:53:32;8.00;99.90
18950;DHT22;9608;49.288;8.130;2024-03-29T03:55:58;8.00;99.90
18950;DHT22;9608;49.288;8.130;2024-03-29T03:58:24;8.00;99.90
18950;DHT22;9608;49.288;8.130;2024-03-29T04:00:50;8.00;99.90
18950;DHT22;9608;49.288;8.130;2024-03-29T04:03:17;8.00;99.90
18950;DHT22;9608;49.288;8.130;2024-03-29T04:05:42;7.90;99.90
18950;DHT22;9608;49.288;8.130;2024-03-29T04:08:10;7.90;99.90
18950;DHT22;9608;49.288;8.130;2024-03-29T04:10:38;7.80;99.90
18950;DHT22;9608;49.288;8.130;2024-03-29T04:13:05;7.80;99.90
18950;DHT22;9608;49.288;8.130;2024-03-29T04:15:30;7.80;99.90
18950;DHT22;9608;49.288;8.130;2024-03-29T04:17:59;7.70;99.90
18950;DHT22;9608;49.288;8.130;2024-03-29T04:20:25;7.60;99.90
18950;DHT22;9608;49.288;8.130;2024-03-29T04:22:51;7.70;99.90
18950;DHT22;9608;49.288;8.130;2024-03-29T04:25:18;7.70;99.90
18950;DHT22;9608;49.288;8.130;2024-03-29T04:27:45;7.70;99.90
18950;DHT22;9608;49.288;8.130;2024-03-29T04:30:11;7.60;99.90
18950;DHT22;9608;49.288;8.130;2024-03-29T04:32:38;7.60;99.90
18950;DHT22;9608;49.288;8.130;2024-03-29T04:35:04;7.70;99.90
18950;DHT22;9608;49.288;8.130;2024-03-29T04:37:31;7.90;99.90
18950;DHT22;9608;49.288;8.130;2024-03-29T04:39:58;7.90;99.90
18950;DHT22;9608;49.288;8.130;2024-03-29T04:42:26;8.00;99.90
18950;DHT22;9608;49.288;8.130;2024-03-29T04:44:53;7.90;99.90
18950;DHT22;9608;49.288;8.130;2024-03-29T04:47:19;7.90;99.90
18950;DHT22;9608;49.288;8.130;2024-03-29T04:49:46;7.80;99.90
18950;DHT22;9608;49.288;8.130;2024-03-29T04:52:13;7.70;99.90
18950;DHT22;9608;49.288;8.130;2024-03-29T04:54:40;7.80;99.90
18950;DHT22;9608;49.288;8.130;2024-03-29T04:57:06;7.80;99.90
18950;DHT22;9608;49.288;8.130;2024-03-29T04:59:35;7.80;99.90
18950;DHT22;9608;49.288;8.130;2024-03-29T05:02:02;7.70;99.90
18950;DHT22;9608;49.288;8.130;2024-03-29T05:04:29;7.60;99.90
18950;DHT22;9608;49.288;8.130;2024-03-29T05:06:56;7.60;99.90
18950;DHT22;9608;49.288;8.130;2024-03-29T05:09:23;7.50;99.90
18950;DHT22;9608;49.288;8.130;2024-03-29T05:11:50;7.70;99.90
18950;DHT22;9608;49.288;8.130;2024-03-29T05:14:19;7.80;99.90
18950;DHT22;9608;49.288;8.130;2024-03-29T05:16:48;7.90;99.90
18950;DHT22;9608;49.288;8.130;2024-03-29T05:19:15;7.80;99.90
18950;DHT22;9608;49.288;8.130;2024-03-29T05:21:42;7.70;99.90
18950;DHT22;9608;49.288;8.130;2024-03-29T05:24:09;7.60;99.90
18950;DHT22;9608;49.288;8.130;2024-03-29T05:26:36;7.60;99.90
18950;DHT22;9608;49.288;8.130;2024-03-29T05:29:02;7.50;99.90
18950;DHT22;9608;49.288;8.130;2024-03-29T05:31:29;7.50;99.90
18950;DHT22;9608;49.288;8.130;2024-03-29T05:33:57;7.50;99.90
18950;DHT22;9608;49.288;8.130;2024-03-29T05:36:25;7.50;99.90
18950;DHT22;9608;49.288;8.130;2024-03-29T05:38:52;7.60;99.90
18950;DHT22;9608;49.288;8.130;2024-03-29T05:41:19;7.70;99.90
18950;DHT22;9608;49.288;8.130;2024-03-29T05:43:46;7.80;99.90
18950;DHT22;9608;49.288;8.130;2024-03-29T05:46:15;7.90;99.90
18950;DHT22;9608;49.288;8.130;2024-03-29T05:48:42;7.90;99.90
18950;DHT22;9608;49.288;8.130;2024-03-29T05:51:10;7.90;99.90
18950;DHT22;9608;49.288;8.130;2024-03-29T05:53:36;8.00;99.90
18950;DHT22;9608;49.288;8.130;2024-03-29T05:56:04;8.10;99.90
18950;DHT22;9608;49.288;8.130;2024-03-29T05:58:31;8.30;99.90
18950;DHT22;9608;49.288;8.130;2024-03-29T06:00:58;8.40;99.90
18950;DHT22;9608;49.288;8.130;2024-03-29T06:03:25;8.40;99.90
18950;DHT22;9608;49.288;8.130;2024-03-29T06:05:53;8.40;99.90
18950;DHT22;9608;49.288;8.130;2024-03-29T06:08:21;8.60;99.90
18950;DHT22;9608;49.288;8.130;2024-03-29T06:10:51;8.70;99.90
18950;DHT22;9608;49.288;8.130;2024-03-29T06:13:18;8.70;99.90
18950;DHT22;9608;49.288;8.130;2024-03-29T06:16:14;8.80;99.90
18950;DHT22;9608;49.288;8.130;2024-03-29T06:18:58;9.00;99.90
18950;DHT22;9608;49.288;8.130;2024-03-29T06:21:24;9.10;99.90
18950;DHT22;9608;49.288;8.130;2024-03-29T06:23:52;9.10;99.90
18950;DHT22;9608;49.288;8.130;2024-03-29T06:26:19;9.20;99.90
18950;DHT22;9608;49.288;8.130;2024-03-29T06:28:46;9.20;99.90
18950;DHT22;9608;49.288;8.130;2024-03-29T06:31:13;9.20;99.90
18950;DHT22;9608;49.288;8.130;2024-03-29T06:33:39;9.20;99.90
18950;DHT22;9608;49.288;8.130;2024-03-29T06:36:06;9.20;99.90
18950;DHT22;9608;49.288;8.130;2024-03-29T06:38:33;9.20;99.90
18950;DHT22;9608;49.288;8.130;2024-03-29T06:41:01;9.30;99.90
18950;DHT22;9608;49.288;8.130;2024-03-29T06:43:29;9.30;99.90
18950;DHT22;9608;49.288;8.130;2024-03-29T06:45:55;9.30;99.90
18950;DHT22;9608;49.288;8.130;2024-03-29T06:48:24;9.40;99.90
18950;DHT22;9608;49.288;8.130;2024-03-29T06:50:50;9.40;99.90
18950;DHT22;9608;49.288;8.130;2024-03-29T06:53:17;9.40;99.90
18950;DHT22;9608;49.288;8.130;2024-03-29T06:55:44;9.50;99.90
18950;DHT22;9608;49.288;8.130;2024-03-29T06:58:12;9.50;99.90
18950;DHT22;9608;49.288;8.130;2024-03-29T07:00:38;9.60;99.90
18950;DHT22;9608;49.288;8.130;2024-03-29T07:03:08;9.60;99.90
18950;DHT22;9608;49.288;8.130;2024-03-29T07:05:37;9.70;99.90
18950;DHT22;9608;49.288;8.130;2024-03-29T07:08:04;9.80;99.90
18950;DHT22;9608;49.288;8.130;2024-03-29T07:10:32;9.80;99.90
18950;DHT22;9608;49.288;8.130;2024-03-29T07:12:59;9.80;99.90
18950;DHT22;9608;49.288;8.130;2024-03-29T07:15:27;9.90;99.90
18950;DHT22;9608;49.288;8.130;2024-03-29T07:17:54;10.00;99.90
18950;DHT22;9608;49.288;8.130;2024-03-29T07:20:22;9.90;99.90
18950;DHT22;9608;49.288;8.130;2024-03-29T07:22:50;9.90;99.90
18950;DHT22;9608;49.288;8.130;2024-03-29T07:25:22;10.00;99.90
18950;DHT22;9608;49.288;8.130;2024-03-29T07:27:52;10.00;99.90
18950;DHT22;9608;49.288;8.130;2024-03-29T07:30:19;10.10;99.90
18950;DHT22;9608;49.288;8.130;2024-03-29T07:32:52;10.10;99.90
18950;DHT22;9608;49.288;8.130;2024-03-29T07:35:18;10.20;99.90
18950;DHT22;9608;49.288;8.130;2024-03-29T07:37:45;10.30;99.90
18950;DHT22;9608;49.288;8.130;2024-03-29T07:40:15;10.40;99.90
18950;DHT22;9608;49.288;8.130;2024-03-29T07:42:42;10.50;99.90
18950;DHT22;9608;49.288;8.130;2024-03-29T07:45:09;10.50;99.90
18950;DHT22;9608;49.288;8.130;2024-03-29T07:47:36;10.40;99.90
18950;DHT22;9608;49.288;8.130;2024-03-29T07:50:04;10.40;99.90
18950;DHT22;9608;49.288;8.130;2024-03-29T07:52:32;10.40;99.90
18950;DHT22;9608;49.288;8.130;2024-03-29T07:54:59;10.40;99.90
18950;DHT22;9608;49.288;8.130;2024-03-29T07:57:31;10.40;99.90
18950;DHT22;9608;49.288;8.130;2024-03-29T07:59:58;10.60;99.90
18950;DHT22;9608;49.288;8.130;2024-03-29T08:02:24;10.70;99.90
18950;DHT22;9608;49.288;8.130;2024-03-29T08:04:52;10.70;99.90
18950;DHT22;9608;49.288;8.130;2024-03-29T08:07:21;10.60;99.90
18950;DHT22;9608;49.288;8.130;2024-03-29T08:09:49;10.70;99.90
18950;DHT22;9608;49.288;8.130;2024-03-29T08:12:16;10.60;99.90
18950;DHT22;9608;49.288;8.130;2024-03-29T08:14:43;10.60;99.90
18950;DHT22;9608;49.288;8.130;2024-03-29T08:17:12;10.70;99.90
18950;DHT22;9608;49.288;8.130;2024-03-29T08:19:41;10.60;99.90
18950;DHT22;9608;49.288;8.130;2024-03-29T08:22:08;10.60;99.90
18950;DHT22;9608;49.288;8.130;2024-03-29T08:24:37;10.70;99.90
18950;DHT22;9608;49.288;8.130;2024-03-29T08:27:04;10.70;99.90
18950;DHT22;9608;49.288;8.130;2024-03-29T08:29:35;10.80;99.90
18950;DHT22;9608;49.288;8.130;2024-03-29T08:32:04;10.80;99.90
18950;DHT22;9608;49.288;8.130;2024-03-29T08:34:35;10.90;99.90
18950;DHT22;9608;49.288;8.130;2024-03-29T08:37:02;11.10;99.90
18950;DHT22;9608;49.288;8.130;2024-03-29T08:39:28;11.10;99.90
18950;DHT22;9608;49.288;8.130;2024-03-29T08:41:57;11.20;99.90
18950;DHT22;9608;49.288;8.130;2024-03-29T08:44:25;11.30;99.90
18950;DHT22;9608;49.288;8.130;2024-03-29T08:46:52;11.30;99.90
18950;DHT22;9608;49.288;8.130;2024-03-29T08:49:22;11.20;99.90
18950;DHT22;9608;49.288;8.130;2024-03-29T08:51:49;11.00;99.90
18950;DHT22;9608;49.288;8.130;2024-03-29T08:54:16;10.90;99.90
18950;DHT22;9608;49.288;8.130;2024-03-29T08:56:43;10.80;99.90
18950;DHT22;9608;49.288;8.130;2024-03-29T08:59:11;10.70;99.90
18950;DHT22;9608;49.288;8.130;2024-03-29T09:01:42;10.70;99.90
18950;DHT22;9608;49.288;8.130;2024-03-29T09:04:09;10.50;99.90
18950;DHT22;9608;49.288;8.130;2024-03-29T09:06:37;10.30;99.90
18950;DHT22;9608;49.288;8.130;2024-03-29T09:09:05;10.30;99.90
18950;DHT22;9608;49.288;8.130;2024-03-29T09:11:33;10.10;99.90
18950;DHT22;9608;49.288;8.130;2024-03-29T09:13:59;9.90;99.90
18950;DHT22;9608;49.288;8.130;2024-03-29T09:16:28;10.00;99.90
18950;DHT22;9608;49.288;8.130;2024-03-29T09:18:55;10.20;99.90
18950;DHT22;9608;49.288;8.130;2024-03-29T09:21:22;10.20;99.90
18950;DHT22;9608;49.288;8.130;2024-03-29T09:23:51;10.20;99.90
18950;DHT22;9608;49.288;8.130;2024-03-29T09:26:18;10.40;99.90
18950;DHT22;9608;49.288;8.130;2024-03-29T09:28:47;10.30;99.90
18950;DHT22;9608;49.288;8.130;2024-03-29T09:31:14;10.10;99.90
18950;DHT22;9608;49.288;8.130;2024-03-29T09:33:42;9.90;99.90
18950;DHT22;9608;49.288;8.130;2024-03-29T09:36:09;10.00;99.90
18950;DHT22;9608;49.288;8.130;2024-03-29T09:38:37;9.90;99.90
18950;DHT22;9608;49.288;8.130;2024-03-29T09:41:14;9.90;99.90
18950;DHT22;9608;49.288;8.130;2024-03-29T09:43:42;10.00;99.90
18950;DHT22;9608;49.288;8.130;2024-03-29T09:46:10;10.10;99.90
18950;DHT22;9608;49.288;8.130;2024-03-29T09:48:39;10.20;99.90
18950;DHT22;9608;49.288;8.130;2024-03-29T09:51:08;10.20;99.90
18950;DHT22;9608;49.288;8.130;2024-03-29T09:53:36;10.50;99.90
18950;DHT22;9608;49.288;8.130;2024-03-29T09:56:03;10.80;99.90
18950;DHT22;9608;49.288;8.130;2024-03-29T09:58:31;10.80;99.90
18950;DHT22;9608;49.288;8.130;2024-03-29T10:00:58;10.90;99.90
18950;DHT22;9608;49.288;8.130;2024-03-29T10:03:27;11.00;99.90
18950;DHT22;9608;49.288;8.130;2024-03-29T10:05:57;11.20;99.90
18950;DHT22;9608;49.288;8.130;2024-03-29T10:08:31;11.50;99.90
18950;DHT22;9608;49.288;8.130;2024-03-29T10:10:58;11.70;99.90
18950;DHT22;9608;49.288;8.130;2024-03-29T10:13:26;11.70;99.90
18950;DHT22;9608;49.288;8.130;2024-03-29T10:15:56;11.80;99.90
18950;DHT22;9608;49.288;8.130;2024-03-29T10:18:25;12.10;99.90
18950;DHT22;9608;49.288;8.130;2024-03-29T10:20:59;12.40;99.90
18950;DHT22;9608;49.288;8.130;2024-03-29T10:23:26;12.80;99.90
18950;DHT22;9608;49.288;8.130;2024-03-29T10:25:54;13.50;99.90
18950;DHT22;9608;49.288;8.130;2024-03-29T10:28:21;13.90;99.90
18950;DHT22;9608;49.288;8.130;2024-03-29T10:30:49;14.30;99.90
18950;DHT22;9608;49.288;8.130;2024-03-29T10:33:16;14.50;99.90
18950;DHT22;9608;49.288;8.130;2024-03-29T10:35:43;14.60;99.90
18950;DHT22;9608;49.288;8.130;2024-03-29T10:38:10;14.60;99.90
18950;DHT22;9608;49.288;8.130;2024-03-29T10:40:38;14.80;99.90
18950;DHT22;9608;49.288;8.130;2024-03-29T10:43:10;15.00;99.90
18950;DHT22;9608;49.288;8.130;2024-03-29T10:45:39;15.10;99.90
18950;DHT22;9608;49.288;8.130;2024-03-29T10:48:06;15.30;99.90
18950;DHT22;9608;49.288;8.130;2024-03-29T10:50:35;15.50;99.90
18950;DHT22;9608;49.288;8.130;2024-03-29T10:53:03;15.40;99.90
18950;DHT22;9608;49.288;8.130;2024-03-29T10:55:30;15.20;99.90
18950;DHT22;9608;49.288;8.130;2024-03-29T10:58:00;15.10;99.90
18950;DHT22;9608;49.288;8.130;2024-03-29T11:00:33;15.00;99.90
18950;DHT22;9608;49.288;8.130;2024-03-29T11:03:15;15.00;99.90
18950;DHT22;9608;49.288;8.130;2024-03-29T11:05:47;14.80;99.90
18950;DHT22;9608;49.288;8.130;2024-03-29T11:08:17;14.70;99.90
18950;DHT22;9608;49.288;8.130;2024-03-29T11:10:48;14.40;99.90
18950;DHT22;9608;49.288;8.130;2024-03-29T11:13:22;14.20;99.90
18950;DHT22;9608;49.288;8.130;2024-03-29T11:15:55;14.40;99.90
18950;DHT22;9608;49.288;8.130;2024-03-29T11:18:22;14.50;99.90
18950;DHT22;9608;49.288;8.130;2024-03-29T11:20:50;14.50;99.90
18950;DHT22;9608;49.288;8.130;2024-03-29T11:23:20;14.50;99.90
18950;DHT22;9608;49.288;8.130;2024-03-29T11:25:49;14.60;99.90
18950;DHT22;9608;49.288;8.130;2024-03-29T11:28:24;14.80;99.90
18950;DHT22;9608;49.288;8.130;2024-03-29T11:30:53;15.10;99.90
18950;DHT22;9608;49.288;8.130;2024-03-29T11:33:30;15.20;99.90
18950;DHT22;9608;49.288;8.130;2024-03-29T11:35:57;15.30;99.90
18950;DHT22;9608;49.288;8.130;2024-03-29T11:38:35;15.30;99.90
18950;DHT22;9608;49.288;8.130;2024-03-29T11:41:03;15.20;99.90
18950;DHT22;9608;49.288;8.130;2024-03-29T11:43:31;15.10;99.90
18950;DHT22;9608;49.288;8.130;2024-03-29T11:46:00;15.00;99.90
18950;DHT22;9608;49.288;8.130;2024-03-29T11:48:28;14.80;99.90
18950;DHT22;9608;49.288;8.130;2024-03-29T11:50:56;14.60;99.90
18950;DHT22;9608;49.288;8.130;2024-03-29T11:53:23;14.60;99.90
18950;DHT22;9608;49.288;8.130;2024-03-29T11:55:50;14.50;99.90
18950;DHT22;9608;49.288;8.130;2024-03-29T11:58:20;14.50;99.90
18950;DHT22;9608;49.288;8.130;2024-03-29T12:00:47;14.50;99.90
18950;DHT22;9608;49.288;8.130;2024-03-29T12:03:15;14.10;99.90
18950;DHT22;9608;49.288;8.130;2024-03-29T12:05:42;14.10;99.90
18950;DHT22;9608;49.288;8.130;2024-03-29T12:08:09;14.10;99.90
18950;DHT22;9608;49.288;8.130;2024-03-29T12:10:36;14.00;99.90
18950;DHT22;9608;49.288;8.130;2024-03-29T12:13:05;14.00;99.90
18950;DHT22;9608;49.288;8.130;2024-03-29T12:15:33;13.90;99.90
18950;DHT22;9608;49.288;8.130;2024-03-29T12:18:01;13.80;99.90
18950;DHT22;9608;49.288;8.130;2024-03-29T12:20:31;13.60;99.90
18950;DHT22;9608;49.288;8.130;2024-03-29T12:22:59;13.60;99.90
18950;DHT22;9608;49.288;8.130;2024-03-29T12:25:26;13.50;99.90
18950;DHT22;9608;49.288;8.130;2024-03-29T12:27:55;13.60;99.90
18950;DHT22;9608;49.288;8.130;2024-03-29T12:30:24;13.70;99.90
18950;DHT22;9608;49.288;8.130;2024-03-29T12:33:00;13.90;99.90
18950;DHT22;9608;49.288;8.130;2024-03-29T12:35:28;13.80;99.90
18950;DHT22;9608;49.288;8.130;2024-03-29T12:37:58;13.60;99.90
18950;DHT22;9608;49.288;8.130;2024-03-29T12:40:38;13.50;99.90
18950;DHT22;9608;49.288;8.130;2024-03-29T12:43:06;13.50;99.90
18950;DHT22;9608;49.288;8.130;2024-03-29T12:45:34;13.40;99.90
18950;DHT22;9608;49.288;8.130;2024-03-29T12:48:02;13.50;99.90
18950;DHT22;9608;49.288;8.130;2024-03-29T12:50:31;13.60;99.90
18950;DHT22;9608;49.288;8.130;2024-03-29T12:53:00;13.60;99.90
18950;DHT22;9608;49.288;8.130;2024-03-29T12:55:29;13.50;99.90
18950;DHT22;9608;49.288;8.130;2024-03-29T12:57:58;13.40;99.90
18950;DHT22;9608;49.288;8.130;2024-03-29T13:00:25;13.40;99.90
18950;DHT22;9608;49.288;8.130;2024-03-29T13:02:52;13.40;99.90
18950;DHT22;9608;49.288;8.130;2024-03-29T13:05:19;13.30;99.90
18950;DHT22;9608;49.288;8.130;2024-03-29T13:07:46;13.20;99.90
18950;DHT22;9608;49.288;8.130;2024-03-29T13:10:16;13.20;99.90
18950;DHT22;9608;49.288;8.130;2024-03-29T13:12:45;13.10;99.90
18950;DHT22;9608;49.288;8.130;2024-03-29T13:15:16;13.00;99.90
18950;DHT22;9608;49.288;8.130;2024-03-29T13:17:44;13.00;99.90
18950;DHT22;9608;49.288;8.130;2024-03-29T13:20:13;13.00;99.90
18950;DHT22;9608;49.288;8.130;2024-03-29T13:22:41;13.10;99.90
18950;DHT22;9608;49.288;8.130;2024-03-29T13:25:10;13.00;99.90
18950;DHT22;9608;49.288;8.130;2024-03-29T13:27:39;12.90;99.90
18950;DHT22;9608;49.288;8.130;2024-03-29T13:30:08;12.80;99.90
18950;DHT22;9608;49.288;8.130;2024-03-29T13:32:37;12.60;99.90
18950;DHT22;9608;49.288;8.130;2024-03-29T13:35:06;12.50;99.90
18950;DHT22;9608;49.288;8.130;2024-03-29T13:37:37;12.50;99.90
18950;DHT22;9608;49.288;8.130;2024-03-29T13:40:06;12.50;99.90
18950;DHT22;9608;49.288;8.130;2024-03-29T13:42:33;12.50;99.90
18950;DHT22;9608;49.288;8.130;2024-03-29T13:45:01;12.50;99.90
18950;DHT22;9608;49.288;8.130;2024-03-29T13:47:28;12.50;99.90
18950;DHT22;9608;49.288;8.130;2024-03-29T13:49:54;12.10;99.90
18950;DHT22;9608;49.288;8.130;2024-03-29T13:52:22;12.00;99.90
18950;DHT22;9608;49.288;8.130;2024-03-29T13:54:49;12.00;99.90
18950;DHT22;9608;49.288;8.130;2024-03-29T13:57:16;12.00;99.90
18950;DHT22;9608;49.288;8.130;2024-03-29T13:59:43;12.00;99.90
18950;DHT22;9608;49.288;8.130;2024-03-29T14:02:12;12.00;99.90
18950;DHT22;9608;49.288;8.130;2024-03-29T14:04:39;12.00;99.90
18950;DHT22;9608;49.288;8.130;2024-03-29T14:07:09;12.00;99.90
18950;DHT22;9608;49.288;8.130;2024-03-29T14:09:38;12.10;99.90
18950;DHT22;9608;49.288;8.130;2024-03-29T14:12:04;12.10;99.90
18950;DHT22;9608;49.288;8.130;2024-03-29T14:14:39;12.10;99.90
18950;DHT22;9608;49.288;8.130;2024-03-29T14:17:07;12.00;99.90
18950;DHT22;9608;49.288;8.130;2024-03-29T14:19:36;12.10;99.90
18950;DHT22;9608;49.288;8.130;2024-03-29T14:22:03;12.20;99.90
18950;DHT22;9608;49.288;8.130;2024-03-29T14:24:31;12.50;99.90
18950;DHT22;9608;49.288;8.130;2024-03-29T14:27:01;12.70;99.90
18950;DHT22;9608;49.288;8.130;2024-03-29T14:29:28;13.00;99.90
18950;DHT22;9608;49.288;8.130;2024-03-29T14:31:55;13.10;99.90
18950;DHT22;9608;49.288;8.130;2024-03-29T14:34:22;13.30;99.90
18950;DHT22;9608;49.288;8.130;2024-03-29T14:36:53;13.30;99.90
18950;DHT22;9608;49.288;8.130;2024-03-29T14:39:19;13.30;99.90
18950;DHT22;9608;49.288;8.130;2024-03-29T14:41:47;13.20;99.90
18950;DHT22;9608;49.288;8.130;2024-03-29T14:44:15;13.10;99.90
18950;DHT22;9608;49.288;8.130;2024-03-29T14:46:42;13.10;99.90
18950;DHT22;9608;49.288;8.130;2024-03-29T14:49:09;13.10;99.90
18950;DHT22;9608;49.288;8.130;2024-03-29T14:51:37;13.10;99.90
18950;DHT22;9608;49.288;8.130;2024-03-29T14:54:06;13.10;99.90
18950;DHT22;9608;49.288;8.130;2024-03-29T14:56:33;13.20;99.90
18950;DHT22;9608;49.288;8.130;2024-03-29T14:59:02;13.20;99.90
18950;DHT22;9608;49.288;8.130;2024-03-29T15:01:29;13.20;99.90
18950;DHT22;9608;49.288;8.130;2024-03-29T15:03:56;13.20;99.90
18950;DHT22;9608;49.288;8.130;2024-03-29T15:06:23;13.30;99.90
18950;DHT22;9608;49.288;8.130;2024-03-29T15:08:54;13.20;99.90
18950;DHT22;9608;49.288;8.130;2024-03-29T15:11:24;13.20;99.90
18950;DHT22;9608;49.288;8.130;2024-03-29T15:13:51;13.30;99.90
18950;DHT22;9608;49.288;8.130;2024-03-29T15:16:19;13.50;99.90
18950;DHT22;9608;49.288;8.130;2024-03-29T15:18:52;13.70;99.90
18950;DHT22;9608;49.288;8.130;2024-03-29T15:21:22;14.00;99.90
18950;DHT22;9608;49.288;8.130;2024-03-29T15:23:49;14.10;99.90
18950;DHT22;9608;49.288;8.130;2024-03-29T15:26:16;14.10;99.90
18950;DHT22;9608;49.288;8.130;2024-03-29T15:28:43;14.10;99.90
18950;DHT22;9608;49.288;8.130;2024-03-29T15:31:28;14.20;99.90
18950;DHT22;9608;49.288;8.130;2024-03-29T15:33:54;14.30;99.90
18950;DHT22;9608;49.288;8.130;2024-03-29T15:36:21;14.30;99.90
18950;DHT22;9608;49.288;8.130;2024-03-29T15:38:48;14.50;99.90
18950;DHT22;9608;49.288;8.130;2024-03-29T15:41:16;14.60;99.90
18950;DHT22;9608;49.288;8.130;2024-03-29T15:43:44;14.70;99.90
18950;DHT22;9608;49.288;8.130;2024-03-29T15:46:11;14.70;99.90
18950;DHT22;9608;49.288;8.130;2024-03-29T15:48:38;14.60;99.90
18950;DHT22;9608;49.288;8.130;2024-03-29T15:51:05;14.50;99.90
18950;DHT22;9608;49.288;8.130;2024-03-29T15:53:35;14.50;99.90
18950;DHT22;9608;49.288;8.130;2024-03-29T15:56:02;14.50;99.90